createdAt,value
2017-05-24T00:00:42.137Z,40
2017-05-24T00:01:50.225Z,40
2017-05-24T00:02:58.307Z,40
2017-05-24T00:04:06.397Z,40
2017-05-24T00:05:14.481Z,40
2017-05-24T00:06:22.574Z,40
2017-05-24T00:07:30.653Z,40
2017-05-24T00:08:38.738Z,40
2017-05-24T00:09:46.830Z,40
2017-05-24T00:10:54.912Z,40
2017-05-24T00:12:03.000Z,40
2017-05-24T00:13:11.082Z,40
2017-05-24T00:14:19.175Z,40
2017-05-24T00:15:27.262Z,39
2017-05-24T00:16:35.348Z,39
2017-05-24T00:17:43.430Z,39
2017-05-24T00:18:51.517Z,40
2017-05-24T00:20:00.317Z,39
2017-05-24T00:21:07.690Z,40
2017-05-24T00:22:15.779Z,39
2017-05-24T00:23:23.864Z,39
2017-05-24T00:24:31.952Z,40
2017-05-24T00:25:40.034Z,39
2017-05-24T00:26:48.122Z,39
2017-05-24T00:27:56.209Z,40
2017-05-24T00:29:04.296Z,40
2017-05-24T00:30:12.387Z,40
2017-05-24T00:31:20.470Z,39
2017-05-24T00:32:28.552Z,39
2017-05-24T00:33:36.642Z,39
2017-05-24T00:34:44.726Z,40
2017-05-24T00:35:52.814Z,39
2017-05-24T00:37:00.957Z,39
2017-05-24T00:38:08.987Z,40
2017-05-24T00:39:17.073Z,39
2017-05-24T00:40:25.160Z,39
2017-05-24T00:41:33.245Z,40
2017-05-24T00:42:41.333Z,39
2017-05-24T00:43:49.420Z,39
2017-05-24T00:44:57.504Z,39
2017-05-24T00:46:05.591Z,40
2017-05-24T00:47:13.677Z,39
2017-05-24T00:48:21.763Z,39
2017-05-24T00:49:29.861Z,40
2017-05-24T00:50:37.961Z,39
2017-05-24T00:51:46.024Z,40
2017-05-24T00:52:54.108Z,40
2017-05-24T00:54:02.203Z,40
2017-05-24T00:55:10.281Z,40
2017-05-24T00:56:18.366Z,40
2017-05-24T00:57:26.455Z,40
2017-05-24T00:58:34.551Z,40
2017-05-24T00:59:42.627Z,40
2017-05-24T01:00:50.716Z,40
2017-05-24T01:01:58.897Z,40
2017-05-24T01:03:06.888Z,40
2017-05-24T01:04:14.972Z,40
2017-05-24T01:05:23.056Z,40
2017-05-24T01:06:31.144Z,40
2017-05-24T01:07:39.234Z,40
2017-05-24T01:08:47.320Z,40
2017-05-24T01:09:55.406Z,40
2017-05-24T01:11:03.601Z,40
2017-05-24T01:12:11.579Z,40
2017-05-24T01:13:19.665Z,40
2017-05-24T01:14:27.749Z,40
2017-05-24T01:15:35.838Z,40
2017-05-24T01:16:43.923Z,40
2017-05-24T01:17:52.012Z,40
2017-05-24T01:19:00.099Z,40
2017-05-24T01:20:08.183Z,40
2017-05-24T01:21:16.272Z,40
2017-05-24T01:22:24.357Z,40
2017-05-24T01:23:32.440Z,40
2017-05-24T01:24:40.528Z,39
2017-05-24T01:25:48.615Z,39
2017-05-24T01:26:56.709Z,40
2017-05-24T01:28:04.793Z,40
2017-05-24T01:29:12.881Z,40
2017-05-24T01:30:20.967Z,40
2017-05-24T01:31:29.052Z,40
2017-05-24T01:32:37.140Z,40
2017-05-24T01:33:45.229Z,40
2017-05-24T01:34:53.313Z,40
2017-05-24T01:36:01.397Z,40
2017-05-24T01:37:09.484Z,40
2017-05-24T01:38:17.570Z,40
2017-05-24T01:39:25.666Z,39
2017-05-24T01:40:33.743Z,40
2017-05-24T01:41:41.828Z,40
2017-05-24T01:42:49.917Z,40
2017-05-24T01:43:58.002Z,40
2017-05-24T01:45:06.111Z,40
2017-05-24T01:46:14.175Z,40
2017-05-24T01:47:22.261Z,40
2017-05-24T01:48:30.347Z,40
2017-05-24T01:49:38.433Z,40
2017-05-24T01:50:46.519Z,40
2017-05-24T01:51:54.606Z,40
2017-05-24T01:53:02.693Z,40
2017-05-24T01:54:10.779Z,40
2017-05-24T01:55:19.019Z,40
2017-05-24T01:56:26.949Z,40
2017-05-24T01:57:35.041Z,40
2017-05-24T01:58:43.125Z,40
2017-05-24T01:59:51.211Z,40
2017-05-24T02:00:59.297Z,40
2017-05-24T02:02:07.379Z,40
2017-05-24T02:03:15.468Z,40
2017-05-24T02:04:23.560Z,40
2017-05-24T02:05:31.648Z,40
2017-05-24T02:06:39.736Z,40
2017-05-24T02:07:47.821Z,40
2017-05-24T02:08:55.908Z,40
2017-05-24T02:10:03.992Z,40
2017-05-24T02:11:12.080Z,40
2017-05-24T02:12:20.169Z,40
2017-05-24T02:13:28.251Z,40
2017-05-24T02:14:36.343Z,40
2017-05-24T02:15:44.430Z,40
2017-05-24T02:16:52.511Z,40
2017-05-24T02:18:00.604Z,40
2017-05-24T02:19:08.694Z,40
2017-05-24T02:20:16.790Z,40
2017-05-24T02:21:24.877Z,40
2017-05-24T02:22:32.963Z,40
2017-05-24T02:23:41.051Z,40
2017-05-24T02:24:49.134Z,40
2017-05-24T02:25:57.220Z,40
2017-05-24T02:27:05.309Z,40
2017-05-24T02:28:13.395Z,40
2017-05-24T02:29:21.482Z,40
2017-05-24T02:30:29.566Z,40
2017-05-24T02:31:37.657Z,40
2017-05-24T02:32:45.741Z,40
2017-05-24T02:33:53.828Z,40
2017-05-24T02:35:01.907Z,40
2017-05-24T02:36:09.998Z,40
2017-05-24T02:37:18.085Z,40
2017-05-24T02:38:26.171Z,40
2017-05-24T02:39:34.258Z,40
2017-05-24T02:40:42.342Z,40
2017-05-24T02:41:50.434Z,40
2017-05-24T02:42:58.515Z,40
2017-05-24T02:44:06.601Z,40
2017-05-24T02:45:14.689Z,40
2017-05-24T02:46:22.774Z,40
2017-05-24T02:47:30.861Z,40
2017-05-24T02:48:38.949Z,40
2017-05-24T02:49:47.034Z,40
2017-05-24T02:50:55.121Z,40
2017-05-24T02:52:03.207Z,40
2017-05-24T02:53:11.293Z,40
2017-05-24T02:54:19.378Z,40
2017-05-24T02:55:27.461Z,40
2017-05-24T02:56:35.550Z,40
2017-05-24T02:57:43.635Z,40
2017-05-24T02:58:51.721Z,40
2017-05-24T02:59:59.806Z,40
2017-05-24T03:01:07.895Z,40
2017-05-24T03:02:15.981Z,40
2017-05-24T03:03:24.066Z,40
2017-05-24T03:04:32.154Z,40
2017-05-24T03:05:40.237Z,40
2017-05-24T03:06:48.324Z,40
2017-05-24T03:07:56.410Z,40
2017-05-24T03:09:04.495Z,40
2017-05-24T03:10:12.582Z,40
2017-05-24T03:11:20.669Z,40
2017-05-24T03:12:28.755Z,40
2017-05-24T03:13:36.840Z,40
2017-05-24T03:14:44.927Z,40
2017-05-24T03:15:53.011Z,40
2017-05-24T03:17:01.097Z,40
2017-05-24T03:18:09.202Z,40
2017-05-24T03:19:17.271Z,40
2017-05-24T03:20:25.355Z,40
2017-05-24T03:21:33.443Z,40
2017-05-24T03:22:41.530Z,40
2017-05-24T03:23:49.613Z,40
2017-05-24T03:24:57.701Z,40
2017-05-24T03:26:05.785Z,40
2017-05-24T03:27:13.875Z,40
2017-05-24T03:28:21.958Z,40
2017-05-24T03:29:30.052Z,40
2017-05-24T03:30:38.144Z,40
2017-05-24T03:31:46.225Z,39
2017-05-24T03:32:54.315Z,39
2017-05-24T03:34:02.395Z,40
2017-05-24T03:35:10.495Z,39
2017-05-24T03:36:18.570Z,40
2017-05-24T03:37:26.656Z,39
2017-05-24T03:38:34.742Z,40
2017-05-24T03:39:42.828Z,39
2017-05-24T03:40:51.246Z,39
2017-05-24T03:41:58.999Z,39
2017-05-24T03:43:07.089Z,39
2017-05-24T03:44:15.177Z,40
2017-05-24T03:45:23.262Z,40
2017-05-24T03:46:31.349Z,40
2017-05-24T03:47:39.442Z,40
2017-05-24T03:48:47.523Z,40
2017-05-24T03:49:55.609Z,40
2017-05-24T03:51:04.188Z,41
2017-05-24T03:52:11.860Z,40
2017-05-24T03:53:19.872Z,41
2017-05-24T03:54:27.953Z,41
2017-05-24T03:55:36.039Z,40
2017-05-24T03:56:44.130Z,41
2017-05-24T03:57:52.312Z,40
2017-05-24T03:59:00.299Z,40
2017-05-24T04:00:08.451Z,40
2017-05-24T04:01:16.579Z,41
2017-05-24T04:02:24.671Z,41
2017-05-24T04:03:32.640Z,41
2017-05-24T04:04:40.728Z,41
2017-05-24T04:05:48.816Z,41
2017-05-24T04:06:56.900Z,41
2017-05-24T04:08:05.089Z,41
2017-05-24T04:09:13.073Z,41
2017-05-24T04:10:21.159Z,41
2017-05-24T04:11:29.243Z,41
2017-05-24T04:12:37.330Z,41
2017-05-24T04:13:45.417Z,41
2017-05-24T04:14:53.503Z,41
2017-05-24T04:16:01.856Z,41
2017-05-24T04:17:10.244Z,41
2017-05-24T04:18:17.768Z,41
2017-05-24T04:19:25.854Z,41
2017-05-24T04:20:33.940Z,41
2017-05-24T04:21:42.027Z,41
2017-05-24T04:22:50.112Z,41
2017-05-24T04:23:58.201Z,41
2017-05-24T04:25:06.287Z,41
2017-05-24T04:26:14.373Z,41
2017-05-24T04:27:22.459Z,41
2017-05-24T04:28:30.543Z,41
2017-05-24T04:29:38.632Z,41
2017-05-24T04:30:47.226Z,41
2017-05-24T04:31:54.805Z,41
2017-05-24T04:33:02.999Z,41
2017-05-24T04:34:10.979Z,41
2017-05-24T04:35:19.108Z,41
2017-05-24T04:36:27.155Z,41
2017-05-24T04:37:35.236Z,41
2017-05-24T04:38:43.320Z,41
2017-05-24T04:39:51.411Z,41
2017-05-24T04:40:59.492Z,41
2017-05-24T04:42:07.578Z,41
2017-05-24T04:43:15.663Z,41
2017-05-24T04:44:23.750Z,41
2017-05-24T04:45:31.845Z,41
2017-05-24T04:46:39.926Z,41
2017-05-24T04:47:48.010Z,41
2017-05-24T04:48:56.095Z,41
2017-05-24T04:50:04.178Z,41
2017-05-24T04:51:12.264Z,41
2017-05-24T04:52:20.352Z,41
2017-05-24T04:53:28.437Z,41
2017-05-24T04:54:36.524Z,41
2017-05-24T04:55:44.610Z,41
2017-05-24T04:56:52.698Z,41
2017-05-24T04:58:00.809Z,41
2017-05-24T04:59:08.872Z,41
2017-05-24T05:00:16.956Z,41
2017-05-24T05:01:25.042Z,41
2017-05-24T05:02:33.130Z,41
2017-05-24T05:03:41.217Z,41
2017-05-24T05:04:49.377Z,41
2017-05-24T05:05:57.388Z,41
2017-05-24T05:07:05.483Z,41
2017-05-24T05:08:13.560Z,41
2017-05-24T05:09:21.645Z,41
2017-05-24T05:10:29.730Z,41
2017-05-24T05:11:37.822Z,41
2017-05-24T05:12:45.904Z,41
2017-05-24T05:13:53.996Z,41
2017-05-24T05:15:02.077Z,41
2017-05-24T05:16:10.164Z,41
2017-05-24T05:17:18.249Z,41
2017-05-24T05:18:26.335Z,41
2017-05-24T05:19:34.423Z,41
2017-05-24T05:20:42.509Z,41
2017-05-24T05:21:50.601Z,41
2017-05-24T05:22:58.682Z,41
2017-05-24T05:24:06.766Z,41
2017-05-24T05:25:14.857Z,41
2017-05-24T05:26:22.942Z,41
2017-05-24T05:27:31.033Z,41
2017-05-24T05:28:39.108Z,41
2017-05-24T05:29:47.196Z,41
2017-05-24T05:30:55.283Z,42
2017-05-24T05:32:03.369Z,42
2017-05-24T05:33:11.454Z,41
2017-05-24T05:34:19.540Z,41
2017-05-24T05:35:27.629Z,41
2017-05-24T05:36:35.713Z,41
2017-05-24T05:37:43.799Z,41
2017-05-24T05:38:51.887Z,41
2017-05-24T05:39:59.971Z,41
2017-05-24T05:41:08.063Z,41
2017-05-24T05:42:16.144Z,41
2017-05-24T05:43:24.231Z,41
2017-05-24T05:44:32.317Z,41
2017-05-24T05:45:40.406Z,41
2017-05-24T05:46:48.488Z,41
2017-05-24T05:47:56.576Z,41
2017-05-24T05:49:04.658Z,41
2017-05-24T05:50:12.744Z,41
2017-05-24T05:51:20.832Z,41
2017-05-24T05:52:28.917Z,41
2017-05-24T05:53:37.003Z,41
2017-05-24T05:54:45.097Z,41
2017-05-24T05:55:53.186Z,41
2017-05-24T05:57:01.269Z,41
2017-05-24T05:58:09.355Z,41
2017-05-24T05:59:17.441Z,41
2017-05-24T06:00:25.530Z,41
2017-05-24T06:01:33.613Z,41
2017-05-24T06:02:41.701Z,41
2017-05-24T06:03:49.789Z,41
2017-05-24T06:04:57.879Z,41
2017-05-24T06:06:05.960Z,41
2017-05-24T06:07:14.047Z,41
2017-05-24T06:08:22.131Z,41
2017-05-24T06:09:30.216Z,40
2017-05-24T06:10:38.304Z,40
2017-05-24T06:11:46.391Z,40
2017-05-24T06:12:54.477Z,41
2017-05-24T06:14:02.563Z,41
2017-05-24T06:15:10.652Z,41
2017-05-24T06:16:18.766Z,41
2017-05-24T06:17:26.826Z,40
2017-05-24T06:18:34.912Z,41
2017-05-24T06:19:42.998Z,40
2017-05-24T06:20:51.086Z,40
2017-05-24T06:21:59.178Z,40
2017-05-24T06:23:07.260Z,41
2017-05-24T06:24:15.344Z,40
2017-05-24T06:25:23.431Z,40
2017-05-24T06:26:31.515Z,41
2017-05-24T06:27:39.602Z,41
2017-05-24T06:28:47.687Z,41
2017-05-24T06:29:55.776Z,40
2017-05-24T06:31:03.865Z,40
2017-05-24T06:32:11.947Z,40
2017-05-24T06:33:20.034Z,40
2017-05-24T06:34:28.120Z,40
2017-05-24T06:35:36.204Z,40
2017-05-24T06:36:44.290Z,41
2017-05-24T06:37:52.376Z,41
2017-05-24T06:39:00.464Z,40
2017-05-24T06:40:08.552Z,40
2017-05-24T06:41:16.638Z,41
2017-05-24T06:42:24.730Z,40
2017-05-24T06:43:32.815Z,41
2017-05-24T06:44:40.901Z,41
2017-05-24T06:45:48.987Z,41
2017-05-24T06:46:57.073Z,41
2017-05-24T06:48:05.161Z,41
2017-05-24T06:49:13.246Z,41
2017-05-24T06:50:21.334Z,41
2017-05-24T06:51:29.426Z,41
2017-05-24T06:52:37.509Z,40
2017-05-24T06:53:45.595Z,41
2017-05-24T06:54:53.681Z,41
2017-05-24T06:56:01.769Z,41
2017-05-24T06:57:09.853Z,41
2017-05-24T06:58:17.948Z,41
2017-05-24T06:59:26.040Z,41
2017-05-24T07:00:34.115Z,41
2017-05-24T07:01:42.200Z,41
2017-05-24T07:02:50.288Z,41
2017-05-24T07:03:58.374Z,41
2017-05-24T07:05:06.484Z,41
2017-05-24T07:06:14.545Z,41
2017-05-24T07:07:22.632Z,41
2017-05-24T07:08:30.719Z,41
2017-05-24T07:09:38.809Z,41
2017-05-24T07:10:46.896Z,41
2017-05-24T07:11:54.984Z,41
2017-05-24T07:13:03.078Z,41
2017-05-24T07:14:11.153Z,41
2017-05-24T07:15:19.239Z,41
2017-05-24T07:16:27.326Z,41
2017-05-24T07:17:35.411Z,41
2017-05-24T07:18:43.495Z,41
2017-05-24T07:19:51.584Z,41
2017-05-24T07:20:59.669Z,41
2017-05-24T07:22:07.753Z,41
2017-05-24T07:23:15.841Z,41
2017-05-24T07:24:23.927Z,41
2017-05-24T07:25:32.016Z,41
2017-05-24T07:26:40.101Z,41
2017-05-24T07:27:48.187Z,41
2017-05-24T07:28:56.271Z,41
2017-05-24T07:30:04.359Z,41
2017-05-24T07:31:12.445Z,41
2017-05-24T07:32:20.535Z,41
2017-05-24T07:33:28.615Z,41
2017-05-24T07:34:36.703Z,41
2017-05-24T07:35:44.791Z,41
2017-05-24T07:36:52.874Z,41
2017-05-24T07:38:01.019Z,41
2017-05-24T07:39:09.047Z,41
2017-05-24T07:40:17.136Z,41
2017-05-24T07:41:25.219Z,41
2017-05-24T07:42:33.305Z,41
2017-05-24T07:43:41.392Z,40
2017-05-24T07:44:49.479Z,40
2017-05-24T07:45:57.571Z,40
2017-05-24T07:47:05.661Z,40
2017-05-24T07:48:13.741Z,41
2017-05-24T07:49:21.829Z,40
2017-05-24T07:50:29.919Z,41
2017-05-24T07:51:38.001Z,41
2017-05-24T07:52:46.090Z,41
2017-05-24T07:53:54.177Z,41
2017-05-24T07:55:02.310Z,41
2017-05-24T07:56:10.352Z,40
2017-05-24T07:57:18.438Z,41
2017-05-24T07:58:26.540Z,41
2017-05-24T07:59:34.610Z,40
2017-05-24T08:00:42.697Z,40
2017-05-24T08:01:50.785Z,40
2017-05-24T08:02:58.874Z,40
2017-05-24T08:04:06.960Z,40
2017-05-24T08:05:15.044Z,40
2017-05-24T08:06:23.137Z,41
2017-05-24T08:07:31.215Z,40
2017-05-24T08:08:39.303Z,40
2017-05-24T08:09:47.389Z,40
2017-05-24T08:10:55.475Z,40
2017-05-24T08:12:03.593Z,40
2017-05-24T08:13:11.650Z,40
2017-05-24T08:14:19.736Z,40
2017-05-24T08:15:28.072Z,40
2017-05-24T08:16:35.910Z,40
2017-05-24T08:17:43.996Z,40
2017-05-24T08:18:52.083Z,40
2017-05-24T08:20:00.170Z,40
2017-05-24T08:21:08.256Z,40
2017-05-24T08:22:16.344Z,40
2017-05-24T08:23:24.431Z,40
2017-05-24T08:24:32.517Z,40
2017-05-24T08:25:40.605Z,40
2017-05-24T08:26:48.688Z,40
2017-05-24T08:27:56.777Z,40
2017-05-24T08:29:04.862Z,40
2017-05-24T08:30:12.951Z,40
2017-05-24T08:31:21.037Z,40
2017-05-24T08:32:29.131Z,40
2017-05-24T08:33:37.212Z,40
2017-05-24T08:34:45.303Z,40
2017-05-24T08:35:53.384Z,40
2017-05-24T08:37:01.471Z,40
2017-05-24T08:38:09.558Z,40
2017-05-24T08:39:17.644Z,40
2017-05-24T08:40:25.734Z,40
2017-05-24T08:41:33.820Z,40
2017-05-24T08:42:41.908Z,40
2017-05-24T08:43:49.996Z,40
2017-05-24T08:44:58.080Z,40
2017-05-24T08:46:06.165Z,40
2017-05-24T08:47:14.251Z,40
2017-05-24T08:48:22.341Z,40
2017-05-24T08:49:30.428Z,40
2017-05-24T08:50:38.514Z,40
2017-05-24T08:51:46.601Z,40
2017-05-24T08:52:54.688Z,40
2017-05-24T08:54:02.775Z,40
2017-05-24T08:55:10.860Z,40
2017-05-24T08:56:18.948Z,40
2017-05-24T08:57:27.041Z,40
2017-05-24T08:58:35.121Z,40
2017-05-24T08:59:43.209Z,40
2017-05-24T09:00:51.296Z,40
2017-05-24T09:01:59.383Z,40
2017-05-24T09:03:07.472Z,40
2017-05-24T09:04:15.558Z,40
2017-05-24T09:05:23.645Z,40
2017-05-24T09:06:31.728Z,40
2017-05-24T09:07:39.876Z,40
2017-05-24T09:08:47.903Z,40
2017-05-24T09:09:55.993Z,40
2017-05-24T09:11:04.080Z,40
2017-05-24T09:12:12.191Z,40
2017-05-24T09:13:20.253Z,40
2017-05-24T09:14:28.340Z,40
2017-05-24T09:15:36.432Z,40
2017-05-24T09:16:44.695Z,40
2017-05-24T09:17:52.599Z,40
2017-05-24T09:19:00.687Z,40
2017-05-24T09:20:08.772Z,40
2017-05-24T09:21:16.860Z,40
2017-05-24T09:22:24.954Z,40
2017-05-24T09:23:33.034Z,40
2017-05-24T09:24:41.120Z,40
2017-05-24T09:25:49.214Z,40
2017-05-24T09:26:57.302Z,40
2017-05-24T09:28:05.388Z,40
2017-05-24T09:29:13.475Z,40
2017-05-24T09:30:21.624Z,40
2017-05-24T09:31:29.654Z,40
2017-05-24T09:32:37.748Z,40
2017-05-24T09:33:45.835Z,40
2017-05-24T09:34:53.926Z,40
2017-05-24T09:36:02.069Z,40
2017-05-24T09:37:10.097Z,40
2017-05-24T09:38:18.184Z,40
2017-05-24T09:39:26.278Z,40
2017-05-24T09:40:34.363Z,40
2017-05-24T09:41:42.451Z,40
2017-05-24T09:42:50.540Z,40
2017-05-24T09:43:58.635Z,40
2017-05-24T09:45:06.714Z,40
2017-05-24T09:46:14.801Z,40
2017-05-24T09:47:22.887Z,39
2017-05-24T09:48:30.973Z,40
2017-05-24T09:49:39.060Z,40
2017-05-24T09:50:47.153Z,40
2017-05-24T09:51:55.234Z,40
2017-05-24T09:53:03.322Z,40
2017-05-24T09:54:11.408Z,40
2017-05-24T09:55:19.496Z,40
2017-05-24T09:56:27.582Z,40
2017-05-24T09:57:35.671Z,40
2017-05-24T09:58:43.757Z,40
2017-05-24T09:59:51.842Z,40
2017-05-24T10:00:59.928Z,40
2017-05-24T10:02:08.015Z,40
2017-05-24T10:03:16.104Z,40
2017-05-24T10:04:24.191Z,40
2017-05-24T10:05:32.279Z,40
2017-05-24T10:06:40.367Z,40
2017-05-24T10:07:48.454Z,40
2017-05-24T10:08:56.540Z,40
2017-05-24T10:10:04.626Z,40
2017-05-24T10:11:12.716Z,40
2017-05-24T10:12:20.800Z,40
2017-05-24T10:13:28.888Z,40
2017-05-24T10:14:36.974Z,40
2017-05-24T10:15:45.061Z,40
2017-05-24T10:16:53.152Z,40
2017-05-24T10:18:01.240Z,40
2017-05-24T10:19:09.325Z,40
2017-05-24T10:20:17.412Z,40
2017-05-24T10:21:25.498Z,40
2017-05-24T10:22:33.585Z,40
2017-05-24T10:23:41.673Z,39
2017-05-24T10:24:49.759Z,39
2017-05-24T10:25:57.850Z,39
2017-05-24T10:27:05.935Z,40
2017-05-24T10:28:14.024Z,39
2017-05-24T10:29:22.110Z,40
2017-05-24T10:30:30.193Z,40
2017-05-24T10:31:38.282Z,40
2017-05-24T10:32:46.370Z,40
2017-05-24T10:33:54.461Z,39
2017-05-24T10:35:02.547Z,39
2017-05-24T10:36:10.632Z,40
2017-05-24T10:37:18.721Z,40
2017-05-24T10:38:26.806Z,40
2017-05-24T10:39:34.894Z,40
2017-05-24T10:40:42.979Z,40
2017-05-24T10:41:51.066Z,39
2017-05-24T10:42:59.158Z,40
2017-05-24T10:44:07.246Z,40
2017-05-24T10:45:15.335Z,40
2017-05-24T10:46:23.418Z,39
2017-05-24T10:47:31.508Z,40
2017-05-24T10:48:39.594Z,39
2017-05-24T10:49:47.683Z,39
2017-05-24T10:50:55.769Z,39
2017-05-24T10:52:03.866Z,39
2017-05-24T10:53:11.945Z,38
2017-05-24T10:54:20.034Z,38
2017-05-24T10:55:28.119Z,38
2017-05-24T10:56:36.209Z,38
2017-05-24T10:57:44.300Z,38
2017-05-24T10:58:52.381Z,37
2017-05-24T11:00:00.802Z,37
2017-05-24T11:01:08.555Z,37
2017-05-24T11:02:16.641Z,37
2017-05-24T11:03:24.728Z,37
2017-05-24T11:04:32.815Z,37
2017-05-24T11:05:40.904Z,37
2017-05-24T11:06:49.056Z,37
2017-05-24T11:07:57.117Z,36
2017-05-24T11:09:05.164Z,36
2017-05-24T11:10:13.250Z,35
2017-05-24T11:11:21.339Z,36
2017-05-24T11:12:29.425Z,36
2017-05-24T11:13:37.513Z,36
2017-05-24T11:14:45.600Z,36
2017-05-24T11:15:53.688Z,36
2017-05-24T11:17:01.775Z,36
2017-05-24T11:18:09.863Z,36
2017-05-24T11:19:17.948Z,35
2017-05-24T11:20:26.035Z,36
2017-05-24T11:21:34.125Z,36
2017-05-24T11:22:42.212Z,35
2017-05-24T11:23:50.302Z,35
2017-05-24T11:24:58.389Z,35
2017-05-24T11:26:06.475Z,35
2017-05-24T11:27:14.830Z,36
2017-05-24T11:28:22.656Z,35
2017-05-24T11:29:30.734Z,36
2017-05-24T11:30:38.824Z,35
2017-05-24T11:31:46.911Z,36
2017-05-24T11:32:55.002Z,36
2017-05-24T11:34:03.087Z,36
2017-05-24T11:35:11.173Z,36
2017-05-24T11:36:19.259Z,36
2017-05-24T11:37:27.347Z,36
2017-05-24T11:38:35.433Z,36
2017-05-24T11:39:43.521Z,35
2017-05-24T11:40:51.675Z,35
2017-05-24T11:41:59.693Z,35
2017-05-24T11:43:07.782Z,35
2017-05-24T11:44:15.869Z,36
2017-05-24T11:45:23.957Z,36
2017-05-24T11:46:32.055Z,35
2017-05-24T11:47:40.139Z,35
2017-05-24T11:48:48.226Z,35
2017-05-24T11:49:56.313Z,35
2017-05-24T11:51:04.401Z,35
2017-05-24T11:52:12.484Z,35
2017-05-24T11:53:21.204Z,35
2017-05-24T11:54:28.669Z,35
2017-05-24T11:55:36.756Z,36
2017-05-24T11:56:44.850Z,36
2017-05-24T11:57:52.961Z,36
2017-05-24T11:59:01.018Z,36
2017-05-24T12:00:09.111Z,35
2017-05-24T12:01:17.194Z,36
2017-05-24T12:02:25.280Z,35
2017-05-24T12:03:33.371Z,35
2017-05-24T12:04:41.460Z,35
2017-05-24T12:05:49.546Z,35
2017-05-24T12:06:57.636Z,35
2017-05-24T12:08:05.721Z,35
2017-05-24T12:09:13.811Z,35
2017-05-24T12:10:21.897Z,35
2017-05-24T12:11:29.995Z,35
2017-05-24T12:12:38.073Z,35
2017-05-24T12:13:46.160Z,35
2017-05-24T12:14:54.316Z,35
2017-05-24T12:16:02.335Z,35
2017-05-24T12:17:10.422Z,35
2017-05-24T12:18:18.510Z,35
2017-05-24T12:19:26.597Z,35
2017-05-24T12:20:34.690Z,35
2017-05-24T12:21:42.774Z,35
2017-05-24T12:22:50.858Z,35
2017-05-24T12:23:58.945Z,35
2017-05-24T12:25:07.031Z,35
2017-05-24T12:26:15.121Z,35
2017-05-24T12:27:23.211Z,35
2017-05-24T12:28:31.296Z,35
2017-05-24T12:29:39.384Z,35
2017-05-24T12:30:47.471Z,35
2017-05-24T12:31:55.584Z,35
2017-05-24T12:33:03.645Z,35
2017-05-24T12:34:11.736Z,35
2017-05-24T12:35:19.820Z,35
2017-05-24T12:36:27.909Z,34
2017-05-24T12:37:35.996Z,35
2017-05-24T12:38:44.084Z,35
2017-05-24T12:39:52.170Z,35
2017-05-24T12:41:00.259Z,34
2017-05-24T12:42:08.345Z,34
2017-05-24T12:43:16.444Z,34
2017-05-24T12:44:24.520Z,34
2017-05-24T12:45:32.606Z,34
2017-05-24T12:46:40.693Z,34
2017-05-24T12:47:48.788Z,34
2017-05-24T12:48:56.868Z,34
2017-05-24T12:50:04.956Z,34
2017-05-24T12:51:13.043Z,34
2017-05-24T12:52:21.139Z,34
2017-05-24T12:53:29.218Z,34
2017-05-24T12:54:37.307Z,33
2017-05-24T12:55:45.391Z,33
2017-05-24T12:56:53.480Z,33
2017-05-24T12:58:01.571Z,34
2017-05-24T12:59:09.681Z,34
2017-05-24T13:00:17.740Z,33
2017-05-24T13:01:25.832Z,34
2017-05-24T13:02:33.918Z,34
2017-05-24T13:03:42.006Z,34
2017-05-24T13:04:50.100Z,33
2017-05-24T13:05:58.181Z,34
2017-05-24T13:07:06.270Z,33
2017-05-24T13:08:14.355Z,34
2017-05-24T13:09:22.442Z,34
2017-05-24T13:10:30.533Z,33
2017-05-24T13:11:38.619Z,33
2017-05-24T13:12:46.707Z,34
2017-05-24T13:13:54.794Z,34
2017-05-24T13:15:02.880Z,34
2017-05-24T13:16:10.968Z,34
2017-05-24T13:17:19.055Z,34
2017-05-24T13:18:27.144Z,33
2017-05-24T13:19:35.233Z,34
2017-05-24T13:20:43.324Z,33
2017-05-24T13:21:51.407Z,34
2017-05-24T13:22:59.496Z,34
2017-05-24T13:24:07.580Z,34
2017-05-24T13:25:15.667Z,33
2017-05-24T13:26:23.755Z,33
2017-05-24T13:27:31.843Z,34
2017-05-24T13:28:39.931Z,33
2017-05-24T13:29:48.018Z,33
2017-05-24T13:30:56.108Z,34
2017-05-24T13:32:04.195Z,34
2017-05-24T13:33:12.284Z,34
2017-05-24T13:34:20.367Z,34
2017-05-24T13:35:28.453Z,34
2017-05-24T13:36:36.551Z,34
2017-05-24T13:37:44.628Z,34
2017-05-24T13:38:52.855Z,34
2017-05-24T13:40:01.038Z,34
2017-05-24T13:41:08.892Z,34
2017-05-24T13:42:16.983Z,34
2017-05-24T13:43:25.069Z,34
2017-05-24T13:44:33.153Z,34
2017-05-24T13:45:41.242Z,34
2017-05-24T13:46:49.331Z,34
2017-05-24T13:47:57.417Z,34
2017-05-24T13:49:05.503Z,34
2017-05-24T13:50:13.593Z,34
2017-05-24T13:51:21.680Z,34
2017-05-24T13:52:29.768Z,34
2017-05-24T13:53:37.854Z,34
2017-05-24T13:54:45.942Z,34
2017-05-24T13:55:54.031Z,34
2017-05-24T13:57:02.118Z,34
2017-05-24T13:58:10.206Z,34
2017-05-24T13:59:18.292Z,34
2017-05-24T14:00:26.381Z,34
2017-05-24T14:01:34.467Z,34
2017-05-24T14:02:42.555Z,34
2017-05-24T14:03:50.653Z,34
2017-05-24T14:04:58.934Z,34
2017-05-24T14:06:06.818Z,34
2017-05-24T14:07:14.904Z,34
2017-05-24T14:08:22.999Z,34
2017-05-24T14:09:31.082Z,34
2017-05-24T14:10:39.176Z,34
2017-05-24T14:11:47.263Z,34
2017-05-24T14:12:55.349Z,35
2017-05-24T14:14:03.441Z,34
2017-05-24T14:15:11.525Z,34
2017-05-24T14:16:19.615Z,34
2017-05-24T14:17:27.700Z,34
2017-05-24T14:18:35.792Z,35
2017-05-24T14:19:43.880Z,35
2017-05-24T14:20:51.967Z,35
2017-05-24T14:22:00.055Z,35
2017-05-24T14:23:08.142Z,35
2017-05-24T14:24:16.229Z,35
2017-05-24T14:25:24.319Z,35
2017-05-24T14:26:32.406Z,35
2017-05-24T14:27:40.495Z,35
2017-05-24T14:28:48.582Z,35
2017-05-24T14:29:56.668Z,35
2017-05-24T14:31:04.758Z,35
2017-05-24T14:32:12.847Z,35
2017-05-24T14:33:20.938Z,35
2017-05-24T14:34:29.023Z,35
2017-05-24T14:35:37.114Z,35
2017-05-24T14:36:45.200Z,35
2017-05-24T14:37:53.287Z,35
2017-05-24T14:39:01.372Z,35
2017-05-24T14:40:09.461Z,35
2017-05-24T14:41:17.550Z,35
2017-05-24T14:42:25.642Z,35
2017-05-24T14:43:33.726Z,35
2017-05-24T14:44:41.870Z,35
2017-05-24T14:45:49.901Z,35
2017-05-24T14:46:57.990Z,35
2017-05-24T14:48:06.102Z,35
2017-05-24T14:49:14.164Z,36
2017-05-24T14:50:22.251Z,36
2017-05-24T14:51:30.342Z,36
2017-05-24T14:52:38.428Z,36
2017-05-24T14:53:46.516Z,36
2017-05-24T14:54:54.607Z,36
2017-05-24T14:56:02.692Z,36
2017-05-24T14:57:10.777Z,36
2017-05-24T14:58:18.866Z,36
2017-05-24T14:59:26.950Z,36
2017-05-24T15:00:35.039Z,36
2017-05-24T15:01:43.134Z,36
2017-05-24T15:02:51.214Z,36
2017-05-24T15:03:59.301Z,36
2017-05-24T15:05:07.389Z,36
2017-05-24T15:06:15.480Z,36
2017-05-24T15:07:23.566Z,36
2017-05-24T15:08:31.653Z,36
2017-05-24T15:09:39.739Z,36
2017-05-24T15:10:47.828Z,36
2017-05-24T15:11:55.915Z,36
2017-05-24T15:13:04.002Z,36
2017-05-24T15:14:12.090Z,36
2017-05-24T15:15:20.178Z,36
2017-05-24T15:16:28.272Z,36
2017-05-24T15:17:36.357Z,36
2017-05-24T15:18:44.446Z,36
2017-05-24T15:19:52.532Z,36
2017-05-24T15:21:00.620Z,36
2017-05-24T15:22:08.709Z,36
2017-05-24T15:23:16.795Z,36
2017-05-24T15:24:24.884Z,36
2017-05-24T15:25:32.972Z,36
2017-05-24T15:26:41.060Z,36
2017-05-24T15:27:49.146Z,36
2017-05-24T15:28:57.233Z,36
2017-05-24T15:30:05.320Z,36
2017-05-24T15:31:13.411Z,36
2017-05-24T15:32:21.498Z,36
2017-05-24T15:33:29.586Z,36
2017-05-24T15:34:37.673Z,36
2017-05-24T15:35:45.764Z,36
2017-05-24T15:36:53.849Z,36
2017-05-24T15:38:01.937Z,36
2017-05-24T15:39:10.023Z,36
2017-05-24T15:40:18.109Z,36
2017-05-24T15:41:26.200Z,36
2017-05-24T15:42:34.287Z,36
2017-05-24T15:43:42.421Z,36
2017-05-24T15:44:50.462Z,36
2017-05-24T15:45:58.549Z,36
2017-05-24T15:47:06.637Z,36
2017-05-24T15:48:14.725Z,36
2017-05-24T15:49:22.809Z,36
2017-05-24T15:50:30.897Z,36
2017-05-24T15:51:38.986Z,36
2017-05-24T15:52:47.074Z,36
2017-05-24T15:53:55.161Z,36
2017-05-24T15:55:03.280Z,36
2017-05-24T15:56:11.337Z,36
2017-05-24T15:57:19.425Z,36
2017-05-24T15:58:27.511Z,36
2017-05-24T15:59:35.599Z,36
2017-05-24T16:00:43.773Z,36
2017-05-24T16:01:51.778Z,36
2017-05-24T16:02:59.867Z,37
2017-05-24T16:04:07.951Z,36
2017-05-24T16:05:16.038Z,36
2017-05-24T16:06:24.129Z,36
2017-05-24T16:07:32.218Z,36
2017-05-24T16:08:40.304Z,36
2017-05-24T16:09:48.392Z,36
2017-05-24T16:10:56.480Z,36